Time;durP1;ratioP1;P1;durP2;ratioP2;P2;SDS_P1;SDS_P2;PMS_P1;PMS_P2;Temp;Humidity;BMP_temperature;BMP_pressure;BME280_temperature;BME280_humidity;BME280_pressure;Samples;Min_cycle;Max_cycle;Signal;HPM_P1;HPM_P2
2022/06/19 00:00:49;;;;;;;10.25;2.45;;;16.60;99.90;;;;;;5027408;28;20069;-70
2022/06/19 00:03:33;;;;;;;10.30;2.35;;;16.70;99.90;;;;;;5031291;28;20363;-70
2022/06/19 00:06:01;;;;;;;7.75;2.03;;;16.60;99.90;;;;;;5012319;28;20568;-70
2022/06/19 00:08:28;;;;;;;7.07;2.17;;;16.50;99.90;;;;;;5010432;28;20050;-71
2022/06/19 00:10:54;;;;;;;11.75;2.92;;;16.50;99.90;;;;;;5022329;28;20145;-70
2022/06/19 00:13:20;;;;;;;7.00;2.40;;;16.50;99.90;;;;;;4997198;28;20164;-70
2022/06/19 00:15:45;;;;;;;9.80;2.60;;;16.50;99.90;;;;;;5030822;28;20076;-70
2022/06/19 00:18:11;;;;;;;13.57;2.85;;;16.40;99.90;;;;;;5030334;28;20120;-71
2022/06/19 00:20:37;;;;;;;6.38;2.10;;;16.40;99.90;;;;;;4997912;28;20057;-70
2022/06/19 00:23:03;;;;;;;9.00;2.00;;;16.60;99.90;;;;;;5030056;28;20053;-70
2022/06/19 00:25:28;;;;;;;10.15;2.20;;;17.00;99.90;;;;;;5030524;28;20085;-70
2022/06/19 00:27:55;;;;;;;6.97;2.05;;;16.50;99.90;;;;;;5031681;28;20130;-70
2022/06/19 00:30:21;;;;;;;11.05;2.40;;;16.50;99.90;;;;;;5030621;28;20038;-70
2022/06/19 00:32:46;;;;;;;9.35;2.47;;;16.40;99.90;;;;;;5012334;28;20103;-70
2022/06/19 00:35:12;;;;;;;12.02;2.70;;;16.40;99.90;;;;;;5028096;28;20383;-70
2022/06/19 00:37:38;;;;;;;8.27;2.33;;;16.40;99.90;;;;;;5024086;28;20581;-70
2022/06/19 00:40:07;;;;;;;9.40;2.35;;;16.50;99.90;;;;;;5031115;28;20045;-70
2022/06/19 00:42:33;;;;;;;9.65;2.53;;;16.50;99.90;;;;;;5030304;28;20060;-70
2022/06/19 00:45:00;;;;;;;15.90;2.80;;;16.50;99.90;;;;;;5033458;28;20494;-70
2022/06/19 00:47:34;;;;;;;10.82;2.30;;;16.90;99.90;;;;;;5032863;28;20029;-70
2022/06/19 00:50:23;;;;;;;9.20;2.17;;;16.50;99.90;;;;;;5033172;28;20409;-69
2022/06/19 00:52:49;;;;;;;9.95;2.45;;;16.50;99.90;;;;;;5017597;28;20300;-70
2022/06/19 00:55:25;;;;;;;9.70;2.03;;;16.40;99.90;;;;;;5030188;28;20438;-70
2022/06/19 00:57:58;;;;;;;9.90;2.65;;;16.40;99.90;;;;;;5029763;28;20033;-69
2022/06/19 01:00:29;;;;;;;9.52;2.20;;;16.70;99.90;;;;;;5030435;28;20387;-70
2022/06/19 01:03:03;;;;;;;12.77;2.75;;;16.40;99.90;;;;;;5012633;28;20046;-69
2022/06/19 01:05:30;;;;;;;13.80;2.30;;;16.60;99.90;;;;;;5029311;28;20544;-70
2022/06/19 01:07:59;;;;;;;15.20;2.65;;;16.60;99.90;;;;;;5030144;28;20380;-70
2022/06/19 01:10:24;;;;;;;12.60;2.60;;;16.50;99.90;;;;;;5029403;28;20414;-70
2022/06/19 01:12:51;;;;;;;13.18;2.58;;;16.40;99.90;;;;;;5028892;28;20132;-69
2022/06/19 01:15:22;;;;;;;12.40;2.60;;;16.50;99.90;;;;;;5030184;28;20068;-70
2022/06/19 01:17:52;;;;;;;14.25;2.90;;;16.40;99.90;;;;;;5007858;28;20053;-70
2022/06/19 01:20:18;;;;;;;15.77;2.95;;;16.40;99.90;;;;;;5010527;28;20406;-70
2022/06/19 01:23:09;;;;;;;13.35;2.80;;;16.40;99.90;;;;;;5010186;28;20060;-70
2022/06/19 01:25:37;;;;;;;13.40;2.67;;;16.30;99.90;;;;;;5002739;28;20051;-70
2022/06/19 01:31:05;;;;;;;15.05;3.03;;;16.20;99.90;;;;;;5030216;28;20160;-70
2022/06/19 01:33:53;;;;;;;11.60;2.60;;;16.20;99.90;;;;;;5028781;28;20045;-70
2022/06/19 01:36:21;;;;;;;12.27;3.10;;;17.20;99.90;;;;;;4995524;28;20075;-69
2022/06/19 01:38:51;;;;;;;12.55;2.85;;;16.20;99.90;;;;;;5028353;28;20486;-70
2022/06/19 01:41:32;;;;;;;15.02;3.08;;;16.20;99.90;;;;;;5030147;28;20152;-70
2022/06/19 01:43:58;;;;;;;15.23;2.72;;;16.20;99.90;;;;;;5012801;28;20050;-69
2022/06/19 01:46:26;;;;;;;13.73;2.65;;;16.20;99.90;;;;;;5022318;28;20042;-69
2022/06/19 01:48:53;;;;;;;10.57;2.45;;;16.20;99.90;;;;;;5027549;28;20167;-70
2022/06/19 01:51:18;;;;;;;17.98;3.17;;;16.30;99.90;;;;;;5012187;28;20443;-70
2022/06/19 01:53:53;;;;;;;15.90;3.05;;;16.50;99.90;;;;;;5028087;28;20056;-70
2022/06/19 01:56:19;;;;;;;17.67;2.97;;;16.30;99.90;;;;;;5029824;28;20087;-70
2022/06/19 01:58:49;;;;;;;14.38;2.83;;;16.30;99.90;;;;;;5008927;28;20320;-70
2022/06/19 02:01:15;;;;;;;13.57;3.05;;;16.20;99.90;;;;;;5028539;28;20050;-70
2022/06/19 02:03:49;;;;;;;14.48;2.95;;;16.70;99.90;;;;;;5011101;28;20128;-70
2022/06/19 02:06:19;;;;;;;17.17;3.00;;;16.30;99.90;;;;;;5028788;28;20398;-70
2022/06/19 02:08:46;;;;;;;16.20;3.20;;;16.30;99.90;;;;;;5028545;28;20037;-71
2022/06/19 02:11:13;;;;;;;16.60;3.10;;;16.50;99.90;;;;;;5030997;28;20605;-71
2022/06/19 02:13:40;;;;;;;15.35;3.20;;;16.20;99.90;;;;;;5028067;28;20076;-70
2022/06/19 02:16:09;;;;;;;13.07;2.30;;;16.20;99.90;;;;;;5029539;28;20492;-70
2022/06/19 02:18:39;;;;;;;13.13;3.15;;;16.20;99.90;;;;;;5029208;28;20063;-71
2022/06/19 02:21:06;;;;;;;13.77;2.70;;;16.50;99.90;;;;;;5007497;28;20495;-71
2022/06/19 02:23:37;;;;;;;14.48;3.33;;;16.20;99.90;;;;;;5008630;28;20096;-70
2022/06/19 02:26:07;;;;;;;13.95;2.97;;;16.10;99.90;;;;;;5014206;28;20422;-71
2022/06/19 02:28:36;;;;;;;14.73;2.90;;;16.00;99.90;;;;;;5028380;28;20040;-71
2022/06/19 02:31:06;;;;;;;17.92;3.03;;;16.10;99.90;;;;;;5029030;28;20042;-70
2022/06/19 02:33:36;;;;;;;15.43;3.00;;;16.00;99.90;;;;;;4994990;28;20045;-70
2022/06/19 02:36:20;;;;;;;15.13;3.30;;;16.10;99.90;;;;;;5029583;28;20434;-70
2022/06/19 02:38:46;;;;;;;11.38;2.72;;;16.00;99.90;;;;;;5028052;28;20057;-70
2022/06/19 02:41:24;;;;;;;15.00;2.80;;;16.00;99.90;;;;;;5011194;28;20115;-71
2022/06/19 02:43:50;;;;;;;19.20;2.83;;;16.00;99.90;;;;;;5028498;28;20049;-70
2022/06/19 02:46:15;;;;;;;16.42;3.40;;;16.00;99.90;;;;;;5028103;28;20131;-70
2022/06/19 02:48:41;;;;;;;17.50;3.50;;;16.00;99.90;;;;;;5027590;28;20111;-70
2022/06/19 02:51:06;;;;;;;13.85;2.90;;;16.00;99.90;;;;;;5028632;28;20053;-70
2022/06/19 02:53:32;;;;;;;14.43;2.67;;;16.00;99.90;;;;;;5027252;28;20482;-70
2022/06/19 02:55:58;;;;;;;14.80;2.80;;;16.00;99.90;;;;;;5030738;28;20429;-70
2022/06/19 02:58:24;;;;;;;17.88;3.00;;;16.10;99.90;;;;;;5030642;28;20053;-71
2022/06/19 03:00:51;;;;;;;19.08;2.85;;;16.00;99.90;;;;;;5027749;28;20420;-70
2022/06/19 03:03:46;;;;;;;12.85;2.88;;;16.00;99.90;;;;;;5027501;28;20191;-70
2022/06/19 03:06:11;;;;;;;15.95;3.20;;;16.00;99.90;;;;;;5004898;28;20095;-70
2022/06/19 03:08:37;;;;;;;15.95;3.10;;;16.00;99.90;;;;;;5007655;28;20101;-70
2022/06/19 03:11:07;;;;;;;17.42;3.00;;;16.00;99.90;;;;;;5008424;28;20060;-70
2022/06/19 03:13:33;;;;;;;12.88;2.50;;;16.00;99.90;;;;;;5008816;28;20042;-70
2022/06/19 03:16:03;;;;;;;12.00;2.58;;;15.90;99.90;;;;;;5023818;28;20513;-70
2022/06/19 03:18:29;;;;;;;17.48;2.85;;;16.00;99.90;;;;;;5011541;28;20045;-70
2022/06/19 03:20:55;;;;;;;11.68;2.55;;;16.00;99.90;;;;;;5028346;28;20041;-69
2022/06/19 03:23:21;;;;;;;14.38;2.65;;;16.00;99.90;;;;;;5027220;28;20114;-69
2022/06/19 03:25:47;;;;;;;12.00;2.85;;;16.30;99.90;;;;;;5027530;28;20144;-70
2022/06/19 03:28:13;;;;;;;12.07;2.40;;;16.00;99.90;;;;;;5027819;28;20042;-70
2022/06/19 03:30:38;;;;;;;11.82;3.00;;;16.20;99.90;;;;;;5029300;28;20060;-70
2022/06/19 03:33:04;;;;;;;15.93;3.08;;;15.90;99.90;;;;;;5027817;28;20038;-70
2022/06/19 03:35:29;;;;;;;15.52;3.35;;;15.90;99.90;;;;;;5010127;28;20474;-70
2022/06/19 03:37:55;;;;;;;14.73;2.88;;;15.80;99.90;;;;;;5032032;28;20467;-69
2022/06/19 03:40:21;;;;;;;13.82;2.53;;;15.60;99.90;;;;;;5031941;28;20053;-70
2022/06/19 03:42:46;;;;;;;15.80;2.90;;;15.60;99.90;;;;;;5031848;28;20048;-70
2022/06/19 03:45:12;;;;;;;13.05;3.15;;;15.50;99.90;;;;;;5031659;28;20090;-70
2022/06/19 03:47:39;;;;;;;18.60;3.00;;;15.50;99.90;;;;;;5019125;28;20088;-70
2022/06/19 03:50:06;;;;;;;15.45;2.97;;;15.40;99.90;;;;;;5015066;28;20160;-70
2022/06/19 03:52:32;;;;;;;18.85;3.40;;;15.30;99.90;;;;;;5030258;28;20465;-70
2022/06/19 03:54:58;;;;;;;21.00;3.75;;;15.10;99.90;;;;;;5032254;28;20037;-69
2022/06/19 03:57:23;;;;;;;18.27;3.08;;;15.10;99.90;;;;;;5031321;28;20056;-70
2022/06/19 03:59:50;;;;;;;14.18;3.20;;;14.90;99.90;;;;;;5031051;28;20037;-70
2022/06/19 04:02:16;;;;;;;17.35;3.15;;;15.20;99.90;;;;;;5031539;28;20048;-70
2022/06/19 04:04:42;;;;;;;17.48;3.38;;;14.70;99.90;;;;;;5015516;28;20046;-69
2022/06/19 04:07:11;;;;;;;19.63;3.38;;;14.80;99.90;;;;;;5011801;28;20041;-70
2022/06/19 04:09:37;;;;;;;15.93;3.58;;;14.80;99.90;;;;;;5027199;28;20067;-70
2022/06/19 04:12:03;;;;;;;18.15;3.42;;;14.90;99.90;;;;;;5031863;28;20554;-70
2022/06/19 04:14:28;;;;;;;19.90;3.15;;;14.90;99.90;;;;;;5013450;28;20033;-70
2022/06/19 04:16:54;;;;;;;18.90;3.92;;;15.00;99.90;;;;;;5030760;28;20486;-69
2022/06/19 04:19:19;;;;;;;16.40;3.70;;;15.30;99.90;;;;;;5014309;28;20151;-70
2022/06/19 04:21:46;;;;;;;18.27;3.55;;;15.00;99.90;;;;;;5030094;28;20045;-70
2022/06/19 04:24:14;;;;;;;17.05;3.88;;;15.10;99.90;;;;;;5031598;28;20037;-70
2022/06/19 04:26:41;;;;;;;21.77;3.63;;;15.30;99.90;;;;;;5033036;28;20041;-70
2022/06/19 04:29:08;;;;;;;16.50;3.30;;;15.00;99.90;;;;;;5030827;28;20060;-70
2022/06/19 04:31:34;;;;;;;15.43;3.20;;;15.00;99.90;;;;;;5030534;28;20100;-70
2022/06/19 04:34:00;;;;;;;14.65;3.33;;;15.00;99.90;;;;;;5031169;28;20073;-70
2022/06/19 04:36:28;;;;;;;21.95;3.40;;;14.90;99.90;;;;;;5029232;28;20041;-70
2022/06/19 04:38:56;;;;;;;15.55;3.13;;;15.00;99.90;;;;;;5030530;28;20046;-71
2022/06/19 04:41:28;;;;;;;16.40;3.30;;;14.80;99.90;;;;;;5030754;28;20295;-71
2022/06/19 04:43:55;;;;;;;14.43;2.90;;;14.70;99.90;;;;;;5031041;28;20493;-71
2022/06/19 04:46:21;;;;;;;16.73;3.08;;;14.60;99.90;;;;;;4996473;28;20085;-71
2022/06/19 04:48:47;;;;;;;11.50;2.90;;;14.50;99.90;;;;;;5031356;28;20056;-70
2022/06/19 04:51:13;;;;;;;12.35;2.45;;;14.90;99.90;;;;;;5009608;28;20058;-70
2022/06/19 04:53:39;;;;;;;12.70;3.03;;;14.50;99.90;;;;;;5022210;28;20170;-70
2022/06/19 04:56:09;;;;;;;12.82;2.70;;;14.60;99.90;;;;;;5012633;28;20503;-71
2022/06/19 04:58:35;;;;;;;8.23;2.53;;;14.90;99.90;;;;;;5012813;28;20107;-71
2022/06/19 05:01:03;;;;;;;15.60;2.90;;;14.60;99.90;;;;;;5030165;28;20081;-71
2022/06/19 05:03:29;;;;;;;13.52;2.60;;;14.60;99.90;;;;;;5011306;28;20128;-71
2022/06/19 05:05:55;;;;;;;10.65;2.83;;;14.60;99.90;;;;;;5009348;28;20132;-70
2022/06/19 05:08:21;;;;;;;15.32;2.92;;;14.60;99.90;;;;;;5010709;28;20037;-70
2022/06/19 05:10:47;;;;;;;12.00;2.30;;;14.60;99.90;;;;;;5012235;28;20465;-70
2022/06/19 05:13:18;;;;;;;12.07;2.55;;;15.30;99.90;;;;;;4992798;28;20111;-71
2022/06/19 05:15:45;;;;;;;9.15;2.30;;;14.60;99.90;;;;;;5021751;28;20053;-71
2022/06/19 05:18:10;;;;;;;9.15;2.28;;;14.60;99.90;;;;;;5011217;28;20505;-71
2022/06/19 05:20:37;;;;;;;16.25;2.80;;;14.60;99.90;;;;;;5030643;28;20097;-70
2022/06/19 05:23:03;;;;;;;14.45;2.78;;;14.60;99.90;;;;;;5030026;28;20042;-70
2022/06/19 05:25:28;;;;;;;13.95;2.75;;;14.50;99.90;;;;;;5018983;28;20056;-71
2022/06/19 05:27:54;;;;;;;9.60;2.60;;;14.50;99.90;;;;;;5011085;28;20042;-71
2022/06/19 05:30:20;;;;;;;14.73;3.05;;;14.50;99.90;;;;;;5007523;28;20072;-70
2022/06/19 05:32:45;;;;;;;10.75;2.33;;;14.50;99.90;;;;;;5009007;28;20132;-71
2022/06/19 05:35:11;;;;;;;8.93;2.60;;;15.00;99.90;;;;;;5010445;28;20064;-71
2022/06/19 05:37:37;;;;;;;11.98;2.72;;;15.40;99.90;;;;;;5009257;28;20060;-71
2022/06/19 05:40:03;;;;;;;12.98;2.97;;;14.50;99.90;;;;;;5020283;28;20509;-71
2022/06/19 05:42:28;;;;;;;12.10;2.67;;;14.50;99.90;;;;;;5008419;28;20350;-71
2022/06/19 05:44:54;;;;;;;13.48;2.90;;;14.90;99.90;;;;;;5041221;28;20502;-70
2022/06/19 05:47:20;;;;;;;11.50;2.42;;;15.10;99.90;;;;;;5031261;28;20037;-71
2022/06/19 05:49:45;;;;;;;12.93;2.75;;;14.50;99.90;;;;;;5029945;28;20485;-71
2022/06/19 05:52:18;;;;;;;11.35;2.75;;;14.50;99.90;;;;;;5028904;28;20461;-71
2022/06/19 05:54:44;;;;;;;12.50;2.97;;;14.50;99.90;;;;;;4995333;28;20041;-71
2022/06/19 05:57:10;;;;;;;14.35;2.78;;;14.90;99.90;;;;;;5030107;28;20072;-71
2022/06/19 05:59:35;;;;;;;17.17;2.85;;;14.40;99.90;;;;;;5029089;28;20049;-70
2022/06/19 06:02:01;;;;;;;12.02;2.85;;;15.10;99.90;;;;;;5012295;28;20412;-70
2022/06/19 06:04:27;;;;;;;13.18;2.70;;;14.40;99.90;;;;;;5029711;28;20044;-70
2022/06/19 06:06:52;;;;;;;18.55;3.00;;;14.40;99.90;;;;;;5028452;28;20045;-70
2022/06/19 06:09:18;;;;;;;21.10;3.30;;;14.40;99.90;;;;;;5029635;28;20037;-70
2022/06/19 06:11:44;;;;;;;14.25;2.53;;;14.40;99.90;;;;;;5029207;28;20053;-71
2022/06/19 06:14:10;;;;;;;16.17;2.63;;;14.40;99.90;;;;;;5004837;28;20413;-70
2022/06/19 06:16:35;;;;;;;16.83;2.65;;;14.40;99.90;;;;;;5009497;28;20058;-71
2022/06/19 06:19:01;;;;;;;13.73;2.58;;;15.00;99.90;;;;;;5029964;28;20042;-70
2022/06/19 06:21:27;;;;;;;10.05;2.40;;;14.40;99.90;;;;;;5028047;28;20160;-71
2022/06/19 06:23:54;;;;;;;15.23;2.70;;;14.60;99.90;;;;;;5028861;28;20510;-71
2022/06/19 06:26:22;;;;;;;15.45;2.70;;;14.40;99.90;;;;;;5029370;28;20079;-69
2022/06/19 06:28:50;;;;;;;16.80;2.88;;;14.40;99.90;;;;;;5010838;28;20132;-69
2022/06/19 06:31:16;;;;;;;18.42;2.92;;;14.40;99.90;;;;;;5028799;28;20057;-69
2022/06/19 06:33:42;;;;;;;13.10;2.50;;;14.60;99.90;;;;;;5028719;28;20124;-69
2022/06/19 06:36:09;;;;;;;11.85;2.55;;;14.50;99.90;;;;;;5027833;28;20056;-69
2022/06/19 06:38:35;;;;;;;10.98;2.90;;;15.20;99.90;;;;;;4993673;28;20060;-70
2022/06/19 06:41:01;;;;;;;12.55;2.50;;;14.70;99.90;;;;;;5010678;28;20494;-69
2022/06/19 06:43:27;;;;;;;15.35;3.03;;;14.70;99.90;;;;;;5029181;28;20054;-70
2022/06/19 06:45:52;;;;;;;13.57;2.70;;;14.70;99.90;;;;;;5028155;28;20110;-70
2022/06/19 06:48:19;;;;;;;12.38;2.53;;;15.50;99.90;;;;;;5027908;28;20053;-69
2022/06/19 06:50:46;;;;;;;15.27;3.03;;;14.80;99.90;;;;;;5028698;28;20530;-70
2022/06/19 06:53:12;;;;;;;16.35;2.80;;;14.80;99.90;;;;;;5027613;28;20037;-69
2022/06/19 06:55:39;;;;;;;10.82;2.13;;;14.90;99.90;;;;;;5028120;28;20045;-70
2022/06/19 06:58:05;;;;;;;14.05;2.70;;;15.00;99.90;;;;;;5010576;28;20049;-70
2022/06/19 07:00:30;;;;;;;14.18;2.83;;;14.90;99.90;;;;;;5028481;28;20053;-70
2022/06/19 07:02:56;;;;;;;9.60;2.47;;;14.90;99.90;;;;;;5028207;28;20121;-70
2022/06/19 07:05:21;;;;;;;14.50;2.40;;;15.20;99.90;;;;;;5027207;28;20478;-70
2022/06/19 07:07:47;;;;;;;14.80;2.85;;;15.00;99.90;;;;;;5028050;28;20041;-70
2022/06/19 07:10:13;;;;;;;15.60;2.47;;;15.00;99.90;;;;;;5027179;28;20053;-70
2022/06/19 07:12:39;;;;;;;13.75;2.53;;;15.00;99.90;;;;;;5028509;28;20043;-70
2022/06/19 07:15:05;;;;;;;10.20;2.40;;;15.10;99.90;;;;;;5009095;28;20470;-70
2022/06/19 07:17:30;;;;;;;13.98;2.88;;;15.10;99.90;;;;;;5028261;28;20634;-70
2022/06/19 07:19:56;;;;;;;13.20;2.45;;;15.20;99.90;;;;;;5010890;28;20208;-70
2022/06/19 07:22:22;;;;;;;11.40;2.70;;;15.00;99.90;;;;;;5009081;28;20053;-70
2022/06/19 07:24:47;;;;;;;14.90;2.67;;;15.10;99.90;;;;;;5027717;28;20049;-70
2022/06/19 07:27:13;;;;;;;14.85;2.60;;;15.60;99.90;;;;;;4994244;28;20068;-69
2022/06/19 07:29:41;;;;;;;9.77;2.70;;;15.00;99.90;;;;;;5026940;28;20128;-70
2022/06/19 07:32:07;;;;;;;17.73;2.70;;;15.70;99.90;;;;;;5027551;28;20389;-70
2022/06/19 07:34:33;;;;;;;14.30;2.80;;;15.50;99.90;;;;;;5009713;28;20474;-69
2022/06/19 07:36:59;;;;;;;14.52;3.22;;;15.10;99.90;;;;;;5011372;28;20050;-69
2022/06/19 07:39:24;;;;;;;13.02;2.70;;;15.20;99.90;;;;;;5027359;28;20085;-69
2022/06/19 07:41:51;;;;;;;13.55;2.90;;;15.60;99.90;;;;;;5010095;28;20053;-69
2022/06/19 07:44:16;;;;;;;10.95;2.58;;;15.90;99.90;;;;;;5027535;28;20384;-69
2022/06/19 07:52:10;;;;;;;11.32;2.53;;;15.40;99.90;;;;;;5027419;28;20465;-70
2022/06/19 07:54:36;;;;;;;10.05;2.40;;;15.40;99.90;;;;;;5027140;28;20050;-69
2022/06/19 07:57:02;;;;;;;10.68;2.50;;;15.50;99.90;;;;;;5027040;28;20037;-70
2022/06/19 07:59:27;;;;;;;8.70;2.40;;;15.50;99.90;;;;;;5028127;28;20116;-71
2022/06/19 08:01:53;;;;;;;10.05;2.38;;;15.90;99.90;;;;;;5027374;28;20049;-69
2022/06/19 08:04:19;;;;;;;13.30;2.33;;;16.00;99.90;;;;;;5027366;28;20121;-69
2022/06/19 08:06:45;;;;;;;9.68;1.98;;;15.50;99.90;;;;;;4994025;28;20061;-69
2022/06/19 08:09:12;;;;;;;12.55;2.47;;;15.60;99.90;;;;;;5029404;28;20445;-70
2022/06/19 08:11:37;;;;;;;11.32;2.40;;;15.50;99.90;;;;;;4993454;28;20056;-69
2022/06/19 08:14:03;;;;;;;13.13;2.40;;;15.50;99.90;;;;;;5028726;28;20482;-70
2022/06/19 08:16:28;;;;;;;8.73;1.90;;;15.90;99.90;;;;;;5027499;28;20095;-70
2022/06/19 08:18:54;;;;;;;11.05;2.03;;;15.50;99.90;;;;;;5027457;28;20057;-70
2022/06/19 08:21:20;;;;;;;9.40;2.33;;;15.90;99.90;;;;;;5027312;28;20072;-70
2022/06/19 08:23:46;;;;;;;10.88;2.42;;;15.50;99.90;;;;;;5012954;28;20467;-68
2022/06/19 08:26:12;;;;;;;9.43;2.08;;;16.30;99.90;;;;;;5012652;28;20096;-69
2022/06/19 08:31:05;;;;;;;11.35;2.10;;;15.60;99.90;;;;;;5017048;28;20050;-69
2022/06/19 08:33:31;;;;;;;11.40;2.30;;;15.70;99.90;;;;;;5030172;28;20045;-70
2022/06/19 08:36:01;;;;;;;10.98;2.38;;;15.90;99.90;;;;;;5013868;28;20116;-69
2022/06/19 08:38:32;;;;;;;13.50;3.05;;;15.70;99.90;;;;;;5015639;28;20056;-69
2022/06/19 08:41:26;;;;;;;11.18;2.17;;;15.70;99.90;;;;;;5013069;28;20469;-70
2022/06/19 08:44:22;;;;;;;12.70;2.60;;;15.80;99.90;;;;;;5012739;28;20045;-69
2022/06/19 08:47:00;;;;;;;10.05;2.30;;;15.90;99.90;;;;;;5008079;28;20143;-69
2022/06/19 08:49:41;;;;;;;9.75;2.47;;;15.80;99.90;;;;;;5019165;28;20136;-69
2022/06/19 08:52:23;;;;;;;11.27;2.33;;;15.80;99.90;;;;;;5030151;28;20509;-69
2022/06/19 08:54:54;;;;;;;12.35;2.53;;;15.80;99.90;;;;;;5011585;28;20049;-69
2022/06/19 08:57:25;;;;;;;11.57;2.20;;;15.80;99.90;;;;;;5030340;28;20038;-69
2022/06/19 09:00:16;;;;;;;9.85;2.35;;;15.80;99.90;;;;;;5012326;28;20049;-70
2022/06/19 09:03:00;;;;;;;9.93;2.00;;;15.80;99.90;;;;;;5029974;28;20072;-69
2022/06/19 09:05:58;;;;;;;5.00;1.77;;;16.10;99.90;;;;;;5028627;28;20188;-70
2022/06/19 09:08:39;;;;;;;10.05;2.05;;;15.90;99.90;;;;;;4993003;28;20058;-70
2022/06/19 09:11:29;;;;;;;12.77;2.08;;;16.10;99.90;;;;;;5012022;28;20065;-70
2022/06/19 09:14:02;;;;;;;8.13;1.73;;;16.10;99.90;;;;;;5029989;28;20041;-70
2022/06/19 09:16:45;;;;;;;8.32;1.92;;;16.40;99.90;;;;;;5028996;28;20127;-69
2022/06/19 09:19:19;;;;;;;9.23;2.10;;;16.30;99.90;;;;;;5003245;28;20053;-69
2022/06/19 09:22:12;;;;;;;8.25;1.75;;;16.30;99.90;;;;;;5028826;28;20061;-69
2022/06/19 09:25:05;;;;;;;7.93;1.90;;;16.40;99.90;;;;;;5029853;28;20050;-69
2022/06/19 09:27:39;;;;;;;5.50;1.75;;;16.40;99.90;;;;;;5012228;28;20183;-69
2022/06/19 09:30:14;;;;;;;5.20;1.70;;;16.40;99.90;;;;;;5029331;28;20057;-69
2022/06/19 09:33:05;;;;;;;7.55;1.70;;;16.50;99.90;;;;;;5028981;28;20096;-69
2022/06/19 09:35:54;;;;;;;7.97;1.90;;;16.30;99.90;;;;;;5010833;28;20076;-69
2022/06/19 09:38:36;;;;;;;6.35;1.65;;;16.30;99.90;;;;;;4979566;28;20054;-69
2022/06/19 09:41:08;;;;;;;7.18;2.10;;;16.40;99.90;;;;;;5011965;28;20120;-69
2022/06/19 09:43:38;;;;;;;5.78;1.70;;;16.30;99.90;;;;;;5028609;28;20125;-69
2022/06/19 09:46:22;;;;;;;5.15;1.77;;;16.30;99.90;;;;;;5008902;28;20054;-69
2022/06/19 09:49:09;;;;;;;8.82;1.60;;;16.30;99.90;;;;;;4992527;28;20054;-69
2022/06/19 09:51:41;;;;;;;4.13;1.70;;;16.30;99.90;;;;;;5009937;28;20050;-69
2022/06/19 09:54:46;;;;;;;7.82;1.83;;;16.30;99.90;;;;;;5016608;28;20092;-69
2022/06/19 09:57:46;;;;;;;6.68;1.88;;;16.40;99.90;;;;;;5024200;28;20514;-69
2022/06/19 10:00:23;;;;;;;5.72;1.83;;;16.60;99.90;;;;;;5015103;28;20140;-79
2022/06/19 10:03:01;;;;;;;6.30;1.58;;;16.70;99.90;;;;;;5027584;28;20045;-78
2022/06/19 10:05:36;;;;;;;4.80;1.60;;;16.80;99.90;;;;;;5011137;28;20406;-78
2022/06/19 10:08:10;;;;;;;8.35;2.03;;;16.90;99.90;;;;;;5014561;28;20557;-81
2022/06/19 10:11:10;;;;;;;7.20;2.28;;;16.80;99.90;;;;;;5007917;28;20058;-80
2022/06/19 10:13:58;;;;;;;5.57;1.80;;;17.10;99.90;;;;;;5003090;28;20514;-73
2022/06/19 10:16:29;;;;;;;7.03;1.60;;;17.20;99.90;;;;;;5004865;28;20061;-74
2022/06/19 10:18:56;;;;;;;6.50;1.67;;;17.20;99.90;;;;;;4987517;28;20050;-74
2022/06/19 10:24:57;;;;;;;7.50;1.48;;;17.50;99.90;;;;;;5015319;28;20162;-74
2022/06/19 10:27:52;;;;;;;6.60;1.75;;;17.80;99.90;;;;;;4974641;28;20046;-74
2022/06/19 10:30:24;;;;;;;6.35;1.73;;;17.60;99.90;;;;;;5022524;28;20053;-75
2022/06/19 10:32:56;;;;;;;5.35;1.60;;;17.60;99.90;;;;;;5005918;28;20080;-74
2022/06/19 10:35:40;;;;;;;5.35;1.60;;;17.60;99.90;;;;;;5005533;28;20544;-74
2022/06/19 10:38:32;;;;;;;5.80;1.50;;;17.60;99.90;;;;;;4991114;28;20107;-74
2022/06/19 10:41:04;;;;;;;5.95;1.50;;;17.50;99.90;;;;;;5015783;28;20073;-73
2022/06/19 10:43:51;;;;;;;6.50;1.60;;;17.50;99.90;;;;;;5006863;28;20426;-73
2022/06/19 10:46:17;;;;;;;7.25;1.60;;;17.50;99.90;;;;;;5000750;28;20458;-74
2022/06/19 10:48:46;;;;;;;5.30;1.50;;;17.60;99.90;;;;;;5018605;28;20050;-79
2022/06/19 10:52:04;;;;;;;4.00;1.45;;;17.80;99.90;;;;;;5028979;28;20060;-79
2022/06/19 10:54:52;;;;;;;5.72;1.50;;;17.90;99.90;;;;;;5022721;28;20054;-72
2022/06/19 10:57:24;;;;;;;4.30;1.30;;;18.00;99.90;;;;;;5027898;28;20391;-72
2022/06/19 10:59:51;;;;;;;2.15;1.20;;;18.10;99.90;;;;;;5027269;28;20109;-72
2022/06/19 11:05:31;;;;;;;5.50;1.30;;;18.40;99.90;;;;;;5028241;28;20092;-71
2022/06/19 11:07:57;;;;;;;3.15;1.35;;;18.40;99.90;;;;;;5026797;28;20069;-72
2022/06/19 11:10:44;;;;;;;3.53;1.20;;;18.50;99.90;;;;;;5027518;28;20037;-72
2022/06/19 11:13:12;;;;;;;3.38;1.20;;;18.60;99.90;;;;;;5027934;28;20119;-71
2022/06/19 11:15:43;;;;;;;2.08;1.23;;;18.40;99.90;;;;;;5009170;28;20080;-71
2022/06/19 11:18:13;;;;;;;3.45;1.40;;;18.30;99.90;;;;;;5027452;28;20121;-71
2022/06/19 11:20:58;;;;;;;4.68;1.40;;;18.30;99.90;;;;;;5027317;28;20545;-71
2022/06/19 11:23:44;;;;;;;3.67;1.20;;;18.10;99.90;;;;;;5027143;28;20436;-71
2022/06/19 11:26:14;;;;;;;6.30;1.42;;;18.10;99.90;;;;;;4993930;28;20054;-71
2022/06/19 11:28:50;;;;;;;8.50;1.58;;;17.80;99.90;;;;;;5008815;28;20037;-71
2022/06/19 11:31:25;;;;;;;2.30;1.10;;;17.70;99.90;;;;;;5027613;28;20437;-70
2022/06/19 11:33:55;;;;;;;5.60;1.60;;;17.60;99.90;;;;;;5010317;28;20085;-71
2022/06/19 11:36:33;;;;;;;5.10;1.63;;;17.50;99.90;;;;;;5016768;28;20111;-71
2022/06/19 11:39:02;;;;;;;6.07;1.50;;;17.30;99.90;;;;;;4990429;28;20049;-71
2022/06/19 11:41:32;;;;;;;4.43;1.48;;;17.20;99.90;;;;;;4990731;28;20069;-71
2022/06/19 11:44:01;;;;;;;6.05;1.67;;;17.50;99.90;;;;;;5008553;28;20050;-71
2022/06/19 11:46:27;;;;;;;5.93;1.60;;;17.10;99.90;;;;;;5007221;28;20100;-72
2022/06/19 11:48:53;;;;;;;5.75;1.75;;;17.00;99.90;;;;;;4991097;28;20485;-72
2022/06/19 11:51:23;;;;;;;6.70;1.98;;;17.00;99.90;;;;;;5008361;28;20095;-71
2022/06/19 11:53:57;;;;;;;6.88;1.83;;;16.80;99.90;;;;;;5007607;28;20113;-72
2022/06/19 11:56:30;;;;;;;6.72;1.90;;;17.30;99.90;;;;;;4974057;28;20653;-72
2022/06/19 11:58:58;;;;;;;8.70;2.00;;;16.70;99.90;;;;;;5011754;28;20498;-72
2022/06/19 12:01:42;;;;;;;7.50;2.17;;;16.70;99.90;;;;;;5011523;28;20046;-72
2022/06/19 12:04:34;;;;;;;7.55;2.25;;;16.70;99.90;;;;;;5011133;28;20144;-72
2022/06/19 12:07:01;;;;;;;6.28;1.83;;;16.70;99.90;;;;;;5010923;28;20054;-72
2022/06/19 12:10:06;;;;;;;5.72;1.80;;;17.20;99.90;;;;;;5011511;28;20053;-72
2022/06/19 12:12:33;;;;;;;7.18;1.98;;;16.80;99.90;;;;;;5010860;28;20057;-72
2022/06/19 12:15:14;;;;;;;6.53;1.83;;;16.70;99.90;;;;;;5012624;28;20053;-72
2022/06/19 12:17:42;;;;;;;7.22;2.00;;;16.80;99.90;;;;;;5011428;28;20046;-71
2022/06/19 12:20:08;;;;;;;7.35;2.00;;;16.80;99.90;;;;;;5011832;28;20046;-72
2022/06/19 12:22:52;;;;;;;8.38;2.05;;;16.80;99.90;;;;;;5010935;28;20038;-72
2022/06/19 12:25:33;;;;;;;7.75;2.08;;;16.80;99.90;;;;;;5010052;28;20045;-71
2022/06/19 12:28:20;;;;;;;8.85;1.92;;;16.90;99.90;;;;;;4994070;28;20095;-72
2022/06/19 12:31:21;;;;;;;5.47;1.77;;;17.00;99.90;;;;;;4992519;28;20088;-71
2022/06/19 12:34:10;;;;;;;8.68;1.67;;;17.30;99.90;;;;;;5011447;28;20078;-73
2022/06/19 12:36:36;;;;;;;5.78;1.65;;;17.60;99.90;;;;;;5010098;28;20108;-72
2022/06/19 12:39:12;;;;;;;6.25;1.50;;;17.90;99.90;;;;;;5010135;28;20404;-72
2022/06/19 12:41:50;;;;;;;6.57;1.95;;;18.30;99.90;;;;;;5010434;28;20049;-72
2022/06/19 12:44:27;;;;;;;6.78;2.00;;;18.60;99.90;;;;;;5011344;28;20096;-71
2022/06/19 12:47:14;;;;;;;5.40;1.65;;;18.70;99.90;;;;;;5010938;28;20096;-72
2022/06/19 12:50:01;;;;;;;6.28;1.75;;;18.80;99.90;;;;;;5010435;28;20156;-72
2022/06/19 12:53:02;;;;;;;4.57;1.52;;;18.90;99.90;;;;;;5009747;28;20383;-71
2022/06/19 12:56:05;;;;;;;6.28;1.60;;;18.70;99.90;;;;;;5010809;28;20410;-71
2022/06/19 12:58:43;;;;;;;8.25;1.77;;;18.90;99.90;;;;;;5010615;28;20387;-72
2022/06/19 13:01:19;;;;;;;5.35;1.52;;;19.10;99.90;;;;;;5010162;28;20048;-72
2022/06/19 13:03:53;;;;;;;;;;;19.20;99.90;;;;;;4978306;28;20054;-72
2022/06/19 13:06:43;;;;;;;5.53;1.60;;;19.20;99.90;;;;;;5013069;28;19976;-72
2022/06/19 13:09:54;;;;;;;7.13;1.73;;;19.10;99.90;;;;;;5029702;28;20061;-72
2022/06/19 13:12:40;;;;;;;4.95;1.60;;;19.20;99.90;;;;;;5012334;28;20052;-72
2022/06/19 13:15:40;;;;;;;5.72;1.60;;;19.20;99.90;;;;;;5031315;28;20050;-72
2022/06/19 13:18:22;;;;;;;6.63;1.95;;;19.20;99.90;;;;;;5029209;28;20107;-72
2022/06/19 13:21:17;;;;;;;8.55;2.05;;;19.20;99.90;;;;;;5011272;28;20509;-72